Time;durP1;ratioP1;P1;durP2;ratioP2;P2;SDS_P1;SDS_P2;PMS_P1;PMS_P2;Temp;Humidity;BMP_temperature;BMP_pressure;BME280_temperature;BME280_humidity;BME280_pressure;Samples;Min_cycle;Max_cycle;Signal;HPM_P1;HPM_P2
2023/03/25 05:02:48;;;;;;;28.35;3.97;;;8.90;99.90;;;;;;6212249;23;19916;-73
2023/03/25 05:05:19;;;;;;;24.02;4.00;;;8.90;99.90;;;;;;6164133;23;20054;-73
2023/03/25 05:07:52;;;;;;;27.23;4.00;;;9.00;99.90;;;;;;6189851;23;20016;-74
2023/03/25 05:10:20;;;;;;;22.55;3.25;;;9.00;99.90;;;;;;6215047;23;20019;-73
2023/03/25 05:12:46;;;;;;;22.77;2.65;;;9.00;99.90;;;;;;6215975;23;20070;-73
2023/03/25 05:15:13;;;;;;;25.23;3.50;;;9.00;99.90;;;;;;6213885;23;20015;-72
2023/03/25 05:17:40;;;;;;;30.08;4.95;;;9.10;99.90;;;;;;6215933;23;20318;-73
2023/03/25 05:20:09;;;;;;;27.90;4.90;;;9.10;99.90;;;;;;6188572;23;20430;-75
2023/03/25 05:22:36;;;;;;;20.13;3.55;;;9.10;99.90;;;;;;6215413;23;20067;-74
2023/03/25 05:25:07;;;;;;;30.27;3.50;;;9.10;99.90;;;;;;6188822;23;20017;-74
2023/03/25 05:27:34;;;;;;;27.33;4.30;;;9.10;99.90;;;;;;6213650;23;20469;-74
2023/03/25 05:30:00;;;;;;;37.70;4.25;;;9.10;99.90;;;;;;6215283;23;20024;-74
2023/03/25 05:32:33;;;;;;;32.50;3.88;;;9.10;99.90;;;;;;6214004;23;20096;-74
2023/03/25 05:35:00;;;;;;;27.38;3.97;;;9.10;99.90;;;;;;6214823;23;20012;-73
2023/03/25 05:37:26;;;;;;;29.85;4.10;;;9.10;99.90;;;;;;6188668;23;20027;-74
2023/03/25 05:39:52;;;;;;;27.80;4.00;;;9.10;99.90;;;;;;6188860;23;20017;-73
2023/03/25 05:42:21;;;;;;;23.00;2.90;;;9.10;99.90;;;;;;6215578;23;20053;-75
2023/03/25 05:44:51;;;;;;;29.67;4.10;;;9.10;99.90;;;;;;6188479;23;20537;-75
2023/03/25 05:47:22;;;;;;;28.00;4.30;;;9.10;99.90;;;;;;6215112;23;20036;-75
2023/03/25 05:49:48;;;;;;;22.75;3.83;;;9.10;99.90;;;;;;6213466;23;20019;-74
2023/03/25 05:52:15;;;;;;;30.58;4.43;;;9.20;99.90;;;;;;6188399;23;20016;-74
2023/03/25 05:54:42;;;;;;;25.85;3.38;;;9.10;99.90;;;;;;6215587;23;20104;-74
2023/03/25 05:57:08;;;;;;;19.20;3.03;;;9.20;99.90;;;;;;6215350;23;20027;-74
2023/03/25 05:59:37;;;;;;;27.77;3.50;;;9.20;99.90;;;;;;6188398;23;20091;-74
2023/03/25 06:02:11;;;;;;;23.20;3.65;;;9.20;99.90;;;;;;6215611;23;20122;-73
2023/03/25 06:04:36;;;;;;;18.27;2.72;;;9.20;99.90;;;;;;6215481;23;20101;-74
2023/03/25 06:07:13;;;;;;;24.20;3.58;;;9.20;99.90;;;;;;6214884;23;20442;-74
2023/03/25 06:09:45;;;;;;;25.58;3.88;;;9.20;99.90;;;;;;6214791;23;20005;-73
2023/03/25 06:12:19;;;;;;;25.92;3.78;;;9.20;99.90;;;;;;6188453;23;20024;-73
2023/03/25 06:14:46;;;;;;;25.35;3.80;;;9.20;99.90;;;;;;6188382;23;20027;-73
2023/03/25 06:17:13;;;;;;;25.55;3.65;;;9.20;99.90;;;;;;6215119;23;20059;-74
2023/03/25 06:19:39;;;;;;;20.77;2.97;;;9.20;99.90;;;;;;6188427;23;20092;-74
2023/03/25 06:22:10;;;;;;;24.63;3.35;;;9.20;99.90;;;;;;6189534;23;20051;-75
2023/03/25 06:24:39;;;;;;;21.13;3.75;;;9.10;99.90;;;;;;6190474;23;20062;-74
2023/03/25 06:27:16;;;;;;;24.10;3.80;;;9.10;99.90;;;;;;6216083;23;20024;-74
2023/03/25 06:29:43;;;;;;;25.73;4.45;;;9.20;99.90;;;;;;6190227;23;20438;-74
2023/03/25 06:32:11;;;;;;;23.90;3.90;;;9.10;99.90;;;;;;6190459;23;20020;-74
2023/03/25 06:34:41;;;;;;;23.80;3.00;;;9.20;99.90;;;;;;6216552;23;20013;-73
2023/03/25 06:37:07;;;;;;;31.00;3.97;;;9.20;99.90;;;;;;6217286;23;20019;-73
2023/03/25 06:39:33;;;;;;;27.63;3.88;;;9.20;99.90;;;;;;6190220;23;20016;-74
2023/03/25 06:41:59;;;;;;;17.40;2.60;;;9.20;99.90;;;;;;6216982;23;20044;-73
2023/03/25 06:44:26;;;;;;;21.13;3.03;;;9.20;99.90;;;;;;6216920;23;20048;-75
2023/03/25 06:46:52;;;;;;;27.08;3.35;;;9.30;99.90;;;;;;6216717;23;20016;-73
2023/03/25 06:49:18;;;;;;;18.38;3.05;;;9.30;99.90;;;;;;6215937;23;20434;-72
2023/03/25 06:51:44;;;;;;;22.52;3.40;;;9.30;99.90;;;;;;6190064;23;20062;-73
2023/03/25 06:54:09;;;;;;;14.70;2.58;;;9.30;99.90;;;;;;6217179;23;20009;-75
2023/03/25 06:56:35;;;;;;;20.42;2.83;;;9.30;99.90;;;;;;6215537;23;20019;-73
2023/03/25 06:59:01;;;;;;;21.23;3.38;;;9.30;99.90;;;;;;6190013;23;20323;-74
2023/03/25 07:01:27;;;;;;;15.40;2.13;;;9.30;99.90;;;;;;6189909;23;20346;-74
2023/03/25 07:03:53;;;;;;;20.02;3.00;;;9.30;99.90;;;;;;6190014;23;20084;-74
2023/03/25 07:06:22;;;;;;;16.15;2.08;;;9.30;99.90;;;;;;6216380;23;20067;-74
2023/03/25 07:08:48;;;;;;;24.58;3.40;;;9.30;99.90;;;;;;6216870;23;20067;-75
2023/03/25 07:11:17;;;;;;;24.40;3.15;;;9.20;99.90;;;;;;6189762;23;20020;-75
2023/03/25 07:13:43;;;;;;;20.92;2.95;;;9.10;99.90;;;;;;6189885;23;20338;-74
2023/03/25 07:16:09;;;;;;;15.27;3.13;;;9.00;99.90;;;;;;6216702;23;20012;-75
2023/03/25 07:18:35;;;;;;;20.40;3.20;;;8.90;99.90;;;;;;6189603;23;20088;-76
2023/03/25 07:21:00;;;;;;;25.95;4.00;;;8.90;99.90;;;;;;6189525;23;20345;-75
2023/03/25 07:23:26;;;;;;;21.35;3.35;;;8.80;99.90;;;;;;6189215;23;20019;-75
2023/03/25 07:25:52;;;;;;;30.77;4.53;;;8.80;99.90;;;;;;6189531;23;20021;-75
2023/03/25 07:28:18;;;;;;;23.25;3.83;;;8.70;99.90;;;;;;6186992;23;20016;-72
2023/03/25 07:30:44;;;;;;;20.73;3.22;;;8.70;99.90;;;;;;6215889;23;20146;-76
2023/03/25 07:33:09;;;;;;;25.88;3.35;;;8.70;99.90;;;;;;6189164;23;20009;-77
2023/03/25 07:35:35;;;;;;;23.65;4.40;;;8.70;99.90;;;;;;6215973;23;20094;-76
2023/03/25 07:38:01;;;;;;;20.35;2.80;;;8.70;99.90;;;;;;6189196;23;20017;-76
2023/03/25 07:40:27;;;;;;;23.05;3.72;;;8.70;99.90;;;;;;6163769;23;20039;-77
2023/03/25 07:42:53;;;;;;;19.98;3.05;;;8.60;99.90;;;;;;6188778;23;20008;-73
2023/03/25 07:45:19;;;;;;;24.35;3.50;;;8.60;99.90;;;;;;6189132;23;20017;-74
2023/03/25 07:47:48;;;;;;;27.92;4.60;;;8.60;99.90;;;;;;6216050;23;20008;-76
2023/03/25 07:50:19;;;;;;;22.88;4.65;;;8.50;99.90;;;;;;6188818;23;20107;-74
2023/03/25 07:52:45;;;;;;;26.90;3.30;;;8.50;99.90;;;;;;6214528;23;20320;-77
2023/03/25 07:55:11;;;;;;;29.52;5.05;;;8.40;99.90;;;;;;6215934;23;20143;-75
2023/03/25 07:57:38;;;;;;;22.17;3.63;;;8.40;99.90;;;;;;6189168;23;20063;-73
2023/03/25 08:00:05;;;;;;;21.40;4.72;;;8.40;99.90;;;;;;6214114;23;20048;-74
2023/03/25 08:02:30;;;;;;;33.40;4.50;;;8.40;99.90;;;;;;6215381;23;20044;-73
2023/03/25 08:04:56;;;;;;;21.85;5.00;;;8.50;99.90;;;;;;6215936;23;20019;-75
2023/03/25 08:07:22;;;;;;;26.75;3.40;;;8.50;99.90;;;;;;6189119;23;20016;-75
2023/03/25 08:09:48;;;;;;;27.15;3.45;;;8.60;99.90;;;;;;6215358;23;20443;-78
2023/03/25 08:12:13;;;;;;;30.48;4.95;;;8.70;99.90;;;;;;6215441;23;20044;-74
2023/03/25 08:14:39;;;;;;;24.98;4.65;;;8.70;99.90;;;;;;6215825;23;20012;-76
2023/03/25 08:17:06;;;;;;;22.15;4.68;;;8.80;99.90;;;;;;6188954;23;20012;-75
2023/03/25 08:19:32;;;;;;;24.02;3.70;;;8.80;99.90;;;;;;6188840;23;20427;-76
2023/03/25 08:21:57;;;;;;;24.70;5.88;;;8.90;99.90;;;;;;6215891;23;20023;-77
2023/03/25 08:24:25;;;;;;;21.30;3.25;;;8.90;99.90;;;;;;6164078;23;20091;-75
2023/03/25 08:26:53;;;;;;;22.42;3.95;;;9.00;99.90;;;;;;6188854;23;20016;-74
2023/03/25 08:29:19;;;;;;;23.92;3.80;;;9.00;99.90;;;;;;6215612;23;20005;-74
2023/03/25 08:31:45;;;;;;;27.05;4.97;;;9.20;99.90;;;;;;6215403;23;20477;-75
2023/03/25 08:34:12;;;;;;;21.42;3.22;;;9.30;99.90;;;;;;6213902;23;20453;-76
2023/03/25 08:36:38;;;;;;;16.60;3.53;;;9.40;99.90;;;;;;6215936;23;20009;-73
2023/03/25 08:39:10;;;;;;;20.10;3.35;;;9.40;99.90;;;;;;6215619;23;20012;-76
2023/03/25 08:41:39;;;;;;;18.20;3.05;;;9.50;99.90;;;;;;6215661;23;20074;-75
2023/03/25 08:44:05;;;;;;;20.02;3.10;;;9.50;99.90;;;;;;6215290;23;20031;-76
2023/03/25 08:46:31;;;;;;;19.23;5.35;;;9.50;99.90;;;;;;6215947;23;20005;-75
2023/03/25 08:48:57;;;;;;;22.08;4.32;;;9.50;99.90;;;;;;6188892;23;20137;-77
2023/03/25 08:51:23;;;;;;;17.65;3.40;;;9.50;99.90;;;;;;6215204;23;20013;-74
2023/03/25 08:53:48;;;;;;;20.58;2.80;;;9.50;99.90;;;;;;6188647;23;20085;-75
2023/03/25 08:56:14;;;;;;;19.70;5.38;;;9.50;99.90;;;;;;6188881;23;20016;-75
2023/03/25 08:58:40;;;;;;;14.63;3.25;;;9.50;99.90;;;;;;6188561;23;20016;-75
2023/03/25 09:01:06;;;;;;;17.77;3.22;;;9.50;99.90;;;;;;6188590;23;20016;-75
2023/03/25 09:03:32;;;;;;;27.85;4.38;;;9.60;99.90;;;;;;6188773;23;20017;-77
2023/03/25 09:06:03;;;;;;;14.57;2.35;;;9.70;99.90;;;;;;6188529;23;20086;-76
2023/03/25 09:08:28;;;;;;;23.75;4.47;;;9.70;99.90;;;;;;6215426;23;20092;-76
2023/03/25 09:10:55;;;;;;;21.08;3.95;;;9.80;99.90;;;;;;6189049;23;20012;-75
2023/03/25 09:13:20;;;;;;;14.52;2.30;;;9.80;99.90;;;;;;6215420;23;20009;-77
2023/03/25 09:15:46;;;;;;;18.13;3.05;;;9.90;99.90;;;;;;6215585;23;20066;-75
2023/03/25 09:18:12;;;;;;;22.80;3.75;;;9.90;99.90;;;;;;6213901;23;20020;-76
2023/03/25 09:20:37;;;;;;;14.32;2.20;;;9.90;99.90;;;;;;6215203;23;20034;-74
2023/03/25 09:23:03;;;;;;;12.68;3.10;;;9.80;99.90;;;;;;6188740;23;20438;-74
2023/03/25 09:25:29;;;;;;;18.30;3.38;;;9.80;99.90;;;;;;6214986;23;20035;-74
2023/03/25 09:27:55;;;;;;;23.83;4.72;;;9.70;99.90;;;;;;6215666;23;20079;-75
2023/03/25 09:30:20;;;;;;;20.88;4.07;;;9.60;99.90;;;;;;6163520;23;20090;-74
2023/03/25 09:32:46;;;;;;;20.08;4.57;;;9.60;99.90;;;;;;6188165;23;20095;-72
2023/03/25 09:35:11;;;;;;;24.10;4.75;;;9.60;99.90;;;;;;6188770;23;20012;-75
2023/03/25 09:37:37;;;;;;;17.45;3.00;;;9.70;99.90;;;;;;6215791;23;20008;-76
2023/03/25 09:40:04;;;;;;;26.55;5.47;;;9.80;99.90;;;;;;6213708;23;20052;-78
2023/03/25 09:42:52;;;;;;;18.25;3.05;;;9.90;99.90;;;;;;6188435;23;20071;-75
2023/03/25 09:45:27;;;;;;;18.20;3.13;;;10.00;99.90;;;;;;6188394;23;20023;-75
2023/03/25 09:48:00;;;;;;;16.13;3.33;;;10.10;99.90;;;;;;6188318;23;20449;-74
2023/03/25 09:50:30;;;;;;;16.10;3.72;;;10.20;99.90;;;;;;6213971;23;20426;-75
2023/03/25 09:53:11;;;;;;;22.92;4.55;;;10.30;99.90;;;;;;6188601;23;20116;-75
2023/03/25 09:55:41;;;;;;;15.32;3.08;;;10.20;99.90;;;;;;6216492;23;20017;-75
2023/03/25 09:58:27;;;;;;;29.08;4.28;;;10.20;99.90;;;;;;6190448;23;20075;-74
2023/03/25 10:01:03;;;;;;;18.58;3.45;;;10.20;99.90;;;;;;6216927;23;20017;-78
2023/03/25 10:03:55;;;;;;;14.90;2.30;;;10.20;99.90;;;;;;6190152;23;20084;-75
2023/03/25 10:06:25;;;;;;;19.75;4.20;;;10.20;99.90;;;;;;6177780;23;20382;-75
2023/03/25 10:09:00;;;;;;;19.92;2.70;;;10.20;99.90;;;;;;6190028;23;20084;-76
2023/03/25 10:11:36;;;;;;;30.05;7.55;;;10.20;99.90;;;;;;6190125;23;20098;-75
2023/03/25 10:14:31;;;;;;;25.73;4.80;;;10.20;99.90;;;;;;6215695;23;20009;-75
2023/03/25 10:17:03;;;;;;;19.25;4.63;;;10.30;99.90;;;;;;6216828;23;20013;-76
2023/03/25 10:19:41;;;;;;;20.30;3.15;;;10.30;99.90;;;;;;6189502;23;20044;-78
2023/03/25 10:22:10;;;;;;;16.40;3.55;;;10.40;99.90;;;;;;6216996;23;20015;-78
2023/03/25 10:24:51;;;;;;;15.82;3.05;;;10.50;99.90;;;;;;6189629;23;20017;-77
2023/03/25 10:27:34;;;;;;;24.70;2.92;;;10.50;99.90;;;;;;6217297;23;20353;-79
2023/03/25 10:30:13;;;;;;;11.25;1.50;;;10.60;99.90;;;;;;6190317;23;20385;-78
2023/03/25 10:32:57;;;;;;;15.98;2.63;;;10.50;99.90;;;;;;6189773;23;20013;-79
2023/03/25 10:35:31;;;;;;;13.95;2.75;;;10.60;99.90;;;;;;6190210;23;20052;-78
2023/03/25 10:38:10;;;;;;;14.05;2.45;;;10.60;99.90;;;;;;6217574;23;20005;-78
2023/03/25 10:40:43;;;;;;;19.17;3.33;;;10.60;99.90;;;;;;6190835;23;20009;-78
2023/03/25 10:43:16;;;;;;;11.63;2.22;;;10.60;99.90;;;;;;6216737;23;20012;-80
2023/03/25 10:45:43;;;;;;;15.68;2.42;;;10.60;99.90;;;;;;6216946;23;20063;-78
2023/03/25 10:48:22;;;;;;;17.52;3.67;;;10.60;99.90;;;;;;6216528;23;20084;-76
2023/03/25 10:50:51;;;;;;;20.02;3.67;;;10.60;99.90;;;;;;6214710;23;20083;-78
2023/03/25 10:53:24;;;;;;;20.13;3.20;;;10.50;99.90;;;;;;6189166;23;20509;-78
2023/03/25 10:55:57;;;;;;;17.55;2.80;;;10.60;99.90;;;;;;6189607;23;20019;-80
2023/03/25 10:58:23;;;;;;;19.00;3.13;;;10.60;99.90;;;;;;6189083;23;20024;-78
2023/03/25 11:00:49;;;;;;;18.05;3.13;;;10.70;99.90;;;;;;6214001;23;20012;-77
2023/03/25 11:03:25;;;;;;;17.33;3.10;;;10.70;99.90;;;;;;6216301;23;20437;-79
2023/03/25 11:05:52;;;;;;;19.25;3.92;;;10.90;99.90;;;;;;6216469;23;20013;-78
2023/03/25 11:08:20;;;;;;;22.65;3.80;;;11.00;99.90;;;;;;6189148;23;20009;-80
2023/03/25 11:10:55;;;;;;;16.20;2.47;;;11.00;99.90;;;;;;6189936;23;20024;-78
2023/03/25 11:13:26;;;;;;;19.58;3.40;;;11.00;99.90;;;;;;6213829;23;20051;-79
2023/03/25 11:16:02;;;;;;;21.45;3.10;;;11.20;99.90;;;;;;6189779;23;20478;-78
2023/03/25 11:18:43;;;;;;;10.98;2.60;;;11.20;99.90;;;;;;6189300;23;20059;-78
2023/03/25 11:21:12;;;;;;;17.98;3.05;;;11.20;99.90;;;;;;6215062;23;20016;-78
2023/03/25 11:23:46;;;;;;;35.28;4.72;;;11.20;99.90;;;;;;6214268;23;20419;-80
2023/03/25 11:26:22;;;;;;;14.20;2.08;;;11.10;99.90;;;;;;6189924;23;20012;-77
2023/03/25 11:28:52;;;;;;;16.25;3.63;;;11.10;99.90;;;;;;6189695;23;20036;-79
2023/03/25 11:31:22;;;;;;;18.85;3.30;;;11.20;99.90;;;;;;6216056;23;20476;-80
2023/03/25 11:34:03;;;;;;;16.60;3.40;;;11.20;99.90;;;;;;6215983;23;20070;-77
2023/03/25 11:36:31;;;;;;;17.73;3.35;;;11.20;99.90;;;;;;6216664;23;20070;-80
2023/03/25 11:39:12;;;;;;;13.57;2.00;;;11.10;99.90;;;;;;6188731;23;20087;-79
2023/03/25 11:41:38;;;;;;;15.65;3.00;;;11.10;99.90;;;;;;6189775;23;20442;-76
2023/03/25 11:44:05;;;;;;;19.77;3.33;;;11.10;99.90;;;;;;6164732;23;20009;-78
2023/03/25 11:46:33;;;;;;;18.15;3.47;;;11.10;99.90;;;;;;6216190;23;20004;-76
2023/03/25 11:49:10;;;;;;;17.48;3.40;;;11.20;99.90;;;;;;6189267;23;20098;-80
2023/03/25 11:51:36;;;;;;;24.48;4.15;;;11.30;99.90;;;;;;6215016;23;20017;-79
2023/03/25 11:54:07;;;;;;;24.65;4.00;;;11.30;99.90;;;;;;6216674;23;20442;-78
2023/03/25 11:56:39;;;;;;;17.80;3.13;;;11.20;99.90;;;;;;6193867;23;20032;-80
2023/03/25 11:59:34;;;;;;;18.02;3.80;;;11.30;99.90;;;;;;6233195;23;20020;-75
2023/03/25 12:02:22;;;;;;;16.42;3.03;;;11.30;99.90;;;;;;6226348;23;20016;-76
2023/03/25 12:05:15;;;;;;;13.00;2.90;;;11.30;99.90;;;;;;6190638;23;20464;-77
2023/03/25 12:07:58;;;;;;;16.30;3.72;;;11.20;99.90;;;;;;6187910;23;20016;-79
2023/03/25 12:10:53;;;;;;;18.83;3.25;;;11.30;99.90;;;;;;6215043;23;20008;-78
2023/03/25 12:13:39;;;;;;;17.90;2.95;;;11.30;99.90;;;;;;6216560;23;20383;-78
2023/03/25 12:16:27;;;;;;;16.88;3.13;;;11.40;99.90;;;;;;6189860;23;20427;-78
2023/03/25 12:19:22;;;;;;;13.05;2.92;;;11.30;99.90;;;;;;6216353;23;20091;-76
2023/03/25 12:21:51;;;;;;;15.90;2.20;;;11.30;99.90;;;;;;6189942;23;20036;-78
2023/03/25 12:24:39;;;;;;;17.13;3.47;;;11.30;99.90;;;;;;6189210;23;20020;-77
2023/03/25 12:27:28;;;;;;;20.88;3.58;;;11.30;99.90;;;;;;6216159;23;20031;-79
2023/03/25 12:30:20;;;;;;;21.15;3.45;;;11.20;99.90;;;;;;6146608;23;20059;-79
2023/03/25 12:33:22;;;;;;;21.20;3.67;;;11.30;99.90;;;;;;6216625;23;20048;-79
2023/03/25 12:36:09;;;;;;;21.83;3.58;;;11.40;99.90;;;;;;6137656;23;20454;-77
2023/03/25 12:39:08;;;;;;;12.45;2.88;;;11.50;99.90;;;;;;6164192;23;20013;-78
2023/03/25 12:41:41;;;;;;;17.35;2.85;;;11.50;99.90;;;;;;6189014;23;20456;-77
2023/03/25 12:44:29;;;;;;;19.52;2.40;;;11.60;99.90;;;;;;6162809;23;20127;-76
2023/03/25 12:47:15;;;;;;;15.23;3.15;;;11.60;99.90;;;;;;6185073;23;20004;-76
2023/03/25 12:49:51;;;;;;;16.63;2.90;;;11.60;99.90;;;;;;6211321;23;20406;-78
2023/03/25 12:52:31;;;;;;;16.73;3.15;;;11.60;99.90;;;;;;6189431;23;20166;-79
2023/03/25 12:54:57;;;;;;;12.10;1.90;;;11.60;99.90;;;;;;6215128;23;20015;-78
2023/03/25 12:57:45;;;;;;;21.75;3.50;;;11.50;99.90;;;;;;6188124;23;20087;-78
2023/03/25 13:00:36;;;;;;;13.77;2.80;;;11.60;99.90;;;;;;6214575;23;20069;-74
2023/03/25 13:03:16;;;;;;;16.02;2.80;;;11.60;99.90;;;;;;6186894;23;20017;-80
2023/03/25 13:05:53;;;;;;;17.08;2.63;;;11.60;99.90;;;;;;6187962;23;20044;-80
2023/03/25 13:08:29;;;;;;;17.07;2.87;;;11.60;99.90;;;;;;6213369;23;20016;-77
2023/03/25 13:11:30;;;;;;;12.50;2.20;;;11.50;99.90;;;;;;6213056;23;20036;-78
2023/03/25 13:14:00;;;;;;;11.98;3.10;;;11.60;99.90;;;;;;6165765;23;20458;-77
2023/03/25 13:16:30;;;;;;;16.92;3.63;;;11.60;99.90;;;;;;6188759;23;20008;-78
2023/03/25 13:19:09;;;;;;;22.38;2.90;;;11.60;99.90;;;;;;6188822;23;20469;-76
2023/03/25 13:21:39;;;;;;;13.00;2.08;;;12.00;99.90;;;;;;6215146;23;20066;-79
2023/03/25 13:24:11;;;;;;;16.20;2.03;;;12.10;99.90;;;;;;6215585;23;20020;-76
2023/03/25 13:26:41;;;;;;;13.35;2.55;;;12.40;99.90;;;;;;6212663;23;20419;-81
2023/03/25 13:29:23;;;;;;;12.75;2.17;;;12.60;99.90;;;;;;6213433;23;20020;-78
2023/03/25 13:31:49;;;;;;;10.23;2.00;;;12.50;99.90;;;;;;6217199;23;20019;-81
2023/03/25 13:34:15;;;;;;;19.88;2.83;;;12.50;99.90;;;;;;6215771;23;20347;-81
2023/03/25 13:36:48;;;;;;;11.43;2.28;;;12.30;99.90;;;;;;6190919;23;20430;-80
2023/03/25 13:39:22;;;;;;;18.85;3.35;;;12.10;99.90;;;;;;6217391;23;20059;-79
2023/03/25 13:42:13;;;;;;;14.27;2.67;;;11.90;99.90;;;;;;6216123;23;20027;-78
2023/03/25 13:44:40;;;;;;;9.02;2.45;;;11.70;99.90;;;;;;6190319;23;20052;-78
2023/03/25 13:47:17;;;;;;;22.20;3.50;;;11.60;99.90;;;;;;6216909;23;20450;-82
2023/03/25 13:49:58;;;;;;;15.02;1.88;;;11.40;99.90;;;;;;6215357;23;20012;-77
2023/03/25 13:52:33;;;;;;;19.10;3.05;;;11.30;99.90;;;;;;6217152;23;20016;-81
2023/03/25 13:55:07;;;;;;;16.50;2.10;;;11.10;99.90;;;;;;6218003;23;20009;-79
2023/03/25 13:57:44;;;;;;;12.88;2.97;;;10.80;99.90;;;;;;6217811;23;20058;-79
2023/03/25 14:00:19;;;;;;;10.85;2.40;;;10.60;99.90;;;;;;6190421;23;20095;-78
2023/03/25 14:03:00;;;;;;;11.93;2.40;;;10.20;99.90;;;;;;6217178;23;20387;-78
2023/03/25 14:05:42;;;;;;;10.25;1.85;;;9.70;99.90;;;;;;6190381;23;20240;-82
2023/03/25 14:08:17;;;;;;;15.48;2.97;;;9.30;99.90;;;;;;6165337;23;20074;-81
2023/03/25 14:11:21;;;;;;;12.25;2.70;;;9.00;99.90;;;;;;6217204;23;20013;-77
2023/03/25 14:14:03;;;;;;;13.10;2.30;;;8.70;99.90;;;;;;6140974;23;20087;-82
2023/03/25 14:16:34;;;;;;;12.02;2.30;;;8.40;99.90;;;;;;6217724;23;20012;-80
2023/03/25 14:19:05;;;;;;;13.20;1.77;;;8.30;99.90;;;;;;6216066;23;20012;-81
2023/03/25 14:21:42;;;;;;;13.55;2.80;;;8.20;99.90;;;;;;6214757;23;20012;-78
2023/03/25 14:24:27;;;;;;;20.30;3.15;;;8.10;99.90;;;;;;6216778;23;20008;-78
2023/03/25 14:26:59;;;;;;;14.43;2.80;;;8.10;99.90;;;;;;6190421;23;20012;-83
2023/03/25 14:29:45;;;;;;;10.27;1.83;;;8.20;99.90;;;;;;6217696;23;20009;-81
2023/03/25 14:32:19;;;;;;;7.20;2.05;;;8.20;99.90;;;;;;6217397;23;20012;-83
2023/03/25 14:34:48;;;;;;;17.15;3.05;;;8.20;99.90;;;;;;6189959;23;20340;-80
2023/03/25 14:37:25;;;;;;;13.93;2.28;;;8.20;99.90;;;;;;6215267;23;20016;-79
2023/03/25 14:39:53;;;;;;;13.45;2.30;;;8.20;99.90;;;;;;6217030;23;20024;-76
2023/03/25 14:42:27;;;;;;;10.82;1.90;;;8.20;99.90;;;;;;6189838;23;20012;-79
2023/03/25 14:45:14;;;;;;;13.82;2.20;;;8.40;99.90;;;;;;6190122;23;20044;-82
2023/03/25 14:47:54;;;;;;;11.10;2.28;;;8.50;99.90;;;;;;6215103;23;20016;-80
2023/03/25 14:50:20;;;;;;;11.48;1.88;;;8.70;99.90;;;;;;6189764;23;20008;-81
2023/03/25 14:52:50;;;;;;;7.75;1.83;;;8.80;99.90;;;;;;6190093;23;20023;-82
2023/03/25 14:55:25;;;;;;;9.98;1.83;;;8.90;99.90;;;;;;6189981;23;20020;-79
2023/03/25 14:58:12;;;;;;;10.73;1.80;;;9.00;99.90;;;;;;6189835;23;20013;-79
2023/03/25 15:00:48;;;;;;;8.88;1.92;;;9.10;99.90;;;;;;6189557;23;20342;-80
2023/03/25 15:03:17;;;;;;;7.65;1.58;;;9.10;99.90;;;;;;6216884;23;20027;-82
2023/03/25 15:05:51;;;;;;;7.90;1.65;;;9.10;99.90;;;;;;6190713;23;20004;-79
2023/03/25 15:08:30;;;;;;;8.93;2.05;;;9.10;99.90;;;;;;6216208;23;20505;-79
2023/03/25 15:11:17;;;;;;;16.05;2.50;;;9.10;99.90;;;;;;6189596;23;20017;-82
2023/03/25 15:13:52;;;;;;;6.85;1.50;;;9.10;99.90;;;;;;6216780;23;20008;-84
2023/03/25 15:16:34;;;;;;;16.23;3.50;;;9.00;99.90;;;;;;6216330;23;20008;-80
2023/03/25 15:19:11;;;;;;;13.13;2.25;;;9.10;99.90;;;;;;6189535;23;20016;-80
2023/03/25 15:21:56;;;;;;;17.23;2.25;;;9.10;99.90;;;;;;6214167;23;20464;-79
2023/03/25 15:24:27;;;;;;;13.02;2.75;;;9.10;99.90;;;;;;6215763;23;20066;-80
2023/03/25 15:26:57;;;;;;;7.63;2.20;;;9.20;99.90;;;;;;6214406;23;20040;-78
2023/03/25 15:30:08;;;;;;;3.25;1.00;;;9.40;99.90;;;;;;6189667;23;20019;-78
2023/03/25 15:33:10;;;;;;;1.83;0.63;;;9.40;99.90;;;;;;6177045;23;20021;-83
2023/03/25 15:36:05;;;;;;;3.40;1.08;;;9.40;99.90;;;;;;6189298;23;20013;-80
2023/03/25 15:39:06;;;;;;;7.00;1.17;;;9.40;99.90;;;;;;6170613;23;20342;-79
2023/03/25 15:42:25;;;;;;;8.98;1.70;;;9.50;99.90;;;;;;6189132;23;20012;-80
2023/03/25 15:44:50;;;;;;;10.90;1.60;;;9.60;99.90;;;;;;6099397;23;20017;-79
2023/03/25 15:47:33;;;;;;;8.60;1.98;;;9.60;99.90;;;;;;6170403;23;20322;-81
2023/03/25 15:50:20;;;;;;;10.90;2.35;;;9.60;99.90;;;;;;6215533;23;20008;-82
2023/03/25 15:53:11;;;;;;;10.10;1.73;;;9.50;99.90;;;;;;6189040;23;20392;-80
2023/03/25 15:56:05;;;;;;;13.07;2.40;;;9.50;99.90;;;;;;6189103;23;20009;-79
2023/03/25 15:59:07;;;;;;;6.72;1.73;;;9.50;99.90;;;;;;6206775;23;20016;-81
2023/03/25 16:01:40;;;;;;;8.57;1.98;;;9.60;99.90;;;;;;6214085;23;20087;-76
2023/03/25 16:04:15;;;;;;;6.20;1.60;;;9.70;99.90;;;;;;6215050;23;20016;-79
2023/03/25 16:06:43;;;;;;;7.25;2.05;;;9.80;99.90;;;;;;6215261;23;20470;-77
2023/03/25 16:09:26;;;;;;;9.30;1.90;;;9.80;99.90;;;;;;6215307;23;20032;-82
2023/03/25 16:11:58;;;;;;;14.45;1.73;;;9.70;99.90;;;;;;6213876;23;20087;-79
2023/03/25 16:14:28;;;;;;;6.53;2.20;;;9.60;99.90;;;;;;6215909;23;20032;-75
2023/03/25 16:16:56;;;;;;;11.15;2.75;;;9.50;99.90;;;;;;6216146;23;20040;-78
2023/03/25 16:19:40;;;;;;;15.27;2.00;;;9.50;99.90;;;;;;6213089;23;20020;-79
2023/03/25 16:22:31;;;;;;;11.13;2.03;;;9.50;99.90;;;;;;6188917;23;20024;-81
2023/03/25 16:25:04;;;;;;;7.68;1.75;;;9.40;99.90;;;;;;6181776;23;20017;-78
2023/03/25 16:27:43;;;;;;;8.07;2.22;;;9.40;99.90;;;;;;6214036;23;20017;-81
2023/03/25 16:30:32;;;;;;;12.32;3.03;;;9.40;99.90;;;;;;6215163;23;20370;-76
2023/03/25 16:33:09;;;;;;;12.35;1.80;;;9.40;99.90;;;;;;6213956;23;20023;-79
2023/03/25 16:35:41;;;;;;;10.32;1.83;;;9.40;99.90;;;;;;6188792;23;20310;-82
2023/03/25 16:38:07;;;;;;;12.40;2.45;;;9.40;99.90;;;;;;6188968;23;20017;-77
2023/03/25 16:40:42;;;;;;;11.15;1.60;;;9.40;99.90;;;;;;6216101;23;20320;-76
2023/03/25 16:43:23;;;;;;;10.75;2.53;;;9.40;99.90;;;;;;6214824;23;20434;-78
2023/03/25 16:45:51;;;;;;;8.07;2.05;;;9.40;99.90;;;;;;6214300;23;20036;-76
2023/03/25 16:48:41;;;;;;;12.32;2.22;;;9.40;99.90;;;;;;6215399;23;20013;-78
2023/03/25 16:51:16;;;;;;;9.50;2.05;;;9.40;99.90;;;;;;6201788;23;20456;-80
2023/03/25 16:53:42;;;;;;;11.38;2.35;;;9.40;99.90;;;;;;6188517;23;20013;-80
2023/03/25 16:56:08;;;;;;;11.60;2.10;;;9.40;99.90;;;;;;6214999;23;20067;-80
2023/03/25 16:58:36;;;;;;;9.63;2.33;;;9.40;99.90;;;;;;6186986;23;20016;-78
2023/03/25 17:01:08;;;;;;;12.75;2.17;;;9.40;99.90;;;;;;6213434;23;20012;-77
2023/03/25 17:03:45;;;;;;;12.65;2.30;;;9.40;99.90;;;;;;6215343;23;20009;-79
2023/03/25 17:06:26;;;;;;;21.40;3.42;;;9.40;99.90;;;;;;6213459;23;20012;-80
2023/03/25 17:08:57;;;;;;;10.85;1.80;;;9.40;99.90;;;;;;6188493;23;20016;-79
2023/03/25 17:11:27;;;;;;;10.93;1.88;;;9.40;99.90;;;;;;6188558;23;20084;-79
2023/03/25 17:14:03;;;;;;;10.63;2.67;;;9.40;99.90;;;;;;6215610;23;20036;-80
2023/03/25 17:16:31;;;;;;;14.30;3.03;;;9.40;99.90;;;;;;6213564;23;20019;-79
2023/03/25 17:18:58;;;;;;;11.90;2.08;;;9.40;99.90;;;;;;6188375;23;20013;-78
2023/03/25 17:21:28;;;;;;;15.38;2.92;;;9.40;99.90;;;;;;6215150;23;20008;-77
2023/03/25 17:23:57;;;;;;;19.15;4.47;;;9.30;99.90;;;;;;6213604;23;20013;-78
2023/03/25 17:26:25;;;;;;;10.30;2.30;;;9.30;99.90;;;;;;6217488;23;20016;-79
2023/03/25 17:28:57;;;;;;;16.77;2.78;;;9.30;99.90;;;;;;6219326;23;20015;-78
2023/03/25 17:31:26;;;;;;;14.25;2.90;;;9.40;99.90;;;;;;6200097;23;20052;-78
2023/03/25 17:34:04;;;;;;;13.18;2.83;;;9.30;99.90;;;;;;6199431;23;20019;-79
2023/03/25 17:36:31;;;;;;;11.70;1.90;;;9.40;99.90;;;;;;6214218;23;20016;-78
2023/03/25 17:38:58;;;;;;;12.65;2.38;;;9.30;99.90;;;;;;6213973;23;20098;-77
2023/03/25 17:41:34;;;;;;;15.23;2.70;;;9.40;99.90;;;;;;6215643;23;20019;-82
2023/03/25 17:44:00;;;;;;;11.55;1.85;;;9.30;99.90;;;;;;6189658;23;20083;-78
2023/03/25 17:46:28;;;;;;;12.15;1.83;;;9.30;99.90;;;;;;6188673;23;20013;-81
2023/03/25 17:48:56;;;;;;;14.75;2.50;;;9.20;99.90;;;;;;6215343;23;20116;-78
2023/03/25 17:51:24;;;;;;;15.68;2.13;;;9.10;99.90;;;;;;6188465;23;20016;-78
2023/03/25 17:53:50;;;;;;;9.80;2.10;;;9.10;99.90;;;;;;6215534;23;20032;-76
2023/03/25 17:56:24;;;;;;;14.13;2.13;;;9.10;99.90;;;;;;6188350;23;20020;-79
2023/03/25 17:59:06;;;;;;;10.65;2.13;;;9.10;99.90;;;;;;6188562;23;20043;-77
2023/03/25 18:01:34;;;;;;;11.23;1.90;;;9.00;99.90;;;;;;6213279;23;20021;-77
2023/03/25 18:04:00;;;;;;;14.82;2.78;;;9.00;99.90;;;;;;6188390;23;20088;-80
2023/03/25 18:06:26;;;;;;;19.17;2.08;;;9.00;99.90;;;;;;6188357;23;20021;-78
2023/03/25 18:08:52;;;;;;;13.70;2.55;;;9.00;99.90;;;;;;6215169;23;20036;-77
2023/03/25 18:11:18;;;;;;;14.13;2.38;;;9.00;99.90;;;;;;6188362;23;20016;-81
2023/03/25 18:13:47;;;;;;;14.23;2.63;;;9.00;99.90;;;;;;6215160;23;20012;-78
2023/03/25 18:16:18;;;;;;;11.65;2.13;;;9.00;99.90;;;;;;6215862;23;20009;-79
2023/03/25 18:18:43;;;;;;;20.25;3.33;;;8.90;99.90;;;;;;6189989;23;20016;-77